Time;durP1;ratioP1;P1;durP2;ratioP2;P2;SDS_P1;SDS_P2;PMS_P1;PMS_P2;Temp;Humidity;BMP_temperature;BMP_pressure;BME280_temperature;BME280_humidity;BME280_pressure;Samples;Min_cycle;Max_cycle;Signal;HPM_P1;HPM_P2
2023/08/28 00:01:05;;;;;;;16.20;14.60;;;;;;;19.73;100.00;98233.45;109582;1251;58131;-69
2023/08/28 00:03:31;;;;;;;13.60;12.30;;;;;;;19.69;100.00;98239.21;109416;1251;63715;-68
2023/08/28 00:05:58;;;;;;;13.20;11.90;;;;;;;19.67;100.00;98246.90;109598;1250;58948;-69
2023/08/28 00:08:25;;;;;;;12.60;11.40;;;;;;;19.64;100.00;98249.70;109529;1251;64027;-68
2023/08/28 00:10:53;;;;;;;10.70;9.60;;;;;;;19.63;100.00;98250.99;109618;1251;58176;-69
2023/08/28 00:13:19;;;;;;;10.50;9.40;;;;;;;19.61;100.00;98248.46;109599;1251;58121;-69
2023/08/28 00:15:46;;;;;;;10.20;9.20;;;;;;;19.58;100.00;98251.15;109592;1250;64007;-69
2023/08/28 00:18:12;;;;;;;10.20;9.00;;;;;;;19.57;100.00;98254.40;109562;1251;59025;-68
2023/08/28 00:20:40;;;;;;;9.00;8.20;;;;;;;19.56;100.00;98247.27;109638;1251;63772;-69
2023/08/28 00:23:06;;;;;;;9.40;8.20;;;;;;;19.52;100.00;98256.45;109581;1251;58178;-69
2023/08/28 00:25:33;;;;;;;7.90;7.30;;;;;;;19.49;100.00;98266.71;109603;1251;58266;-69
2023/08/28 00:27:59;;;;;;;8.10;6.80;;;;;;;19.47;100.00;98267.66;109599;1251;58782;-69
2023/08/28 00:30:26;;;;;;;8.20;7.10;;;;;;;19.47;100.00;98269.02;109663;1250;58149;-69
2023/08/28 00:32:53;;;;;;;5.90;5.40;;;;;;;19.44;100.00;98269.67;109408;1251;64040;-69
2023/08/28 00:35:19;;;;;;;8.20;7.30;;;;;;;19.42;100.00;98275.48;109458;1251;58197;-69
2023/08/28 00:37:46;;;;;;;8.00;5.90;;;;;;;19.40;100.00;98282.40;109612;1251;58046;-69
2023/08/28 00:40:13;;;;;;;6.60;6.00;;;;;;;19.38;100.00;98290.17;109628;1250;63811;-69
2023/08/28 00:42:40;;;;;;;6.20;5.60;;;;;;;19.32;100.00;98298.65;109644;1250;59033;-69
2023/08/28 00:45:07;;;;;;;5.40;4.90;;;;;;;19.25;100.00;98308.06;109583;1251;62691;-69
2023/08/28 00:47:35;;;;;;;4.90;4.50;;;;;;;19.18;100.00;98309.73;109424;1251;58559;-69
2023/08/28 00:50:03;;;;;;;5.60;4.80;;;;;;;19.14;100.00;98309.39;109586;1251;58226;-69
2023/08/28 00:52:31;;;;;;;4.20;3.90;;;;;;;19.08;100.00;98311.77;109574;1250;64946;-69
2023/08/28 00:54:57;;;;;;;4.20;3.80;;;;;;;19.02;100.00;98318.56;109626;1251;60169;-69
2023/08/28 00:57:24;;;;;;;4.10;3.70;;;;;;;18.99;100.00;98313.72;109540;1251;64076;-69
2023/08/28 00:59:51;;;;;;;3.80;3.60;;;;;;;18.98;100.00;98315.67;109598;1251;58136;-69
2023/08/28 01:02:17;;;;;;;4.60;3.50;;;;;;;18.98;100.00;98323.44;109647;1251;58118;-69
2023/08/28 01:04:44;;;;;;;3.70;3.40;;;;;;;18.97;100.00;98333.48;109579;1250;65216;-69
2023/08/28 01:07:22;;;;;;;3.70;3.30;;;;;;;18.95;100.00;98343.67;109433;1251;58240;-69
2023/08/28 01:10:15;;;;;;;2.50;2.30;;;;;;;18.94;100.00;98342.55;109529;1251;62810;-69
2023/08/28 01:13:11;;;;;;;2.40;2.20;;;;;;;18.92;100.00;98345.70;109440;1251;58136;-70
2023/08/28 01:15:39;;;;;;;2.30;2.00;;;;;;;18.89;100.00;98361.55;109587;1251;58116;-70
2023/08/28 01:18:07;;;;;;;2.40;2.20;;;;;;;18.87;100.00;98372.71;109575;1251;65729;-70
2023/08/28 01:20:35;;;;;;;2.10;1.90;;;;;;;18.84;100.00;98372.98;109624;1251;58744;-70
2023/08/28 01:23:14;;;;;;;5.40;2.00;;;;;;;18.82;100.00;98368.88;109550;1251;64051;-70
2023/08/28 01:25:41;;;;;;;2.40;1.90;;;;;;;18.80;100.00;98366.30;109583;1251;58397;-70
2023/08/28 01:28:07;;;;;;;2.60;1.90;;;;;;;18.80;100.00;98374.23;109662;1251;58020;-70
2023/08/28 01:30:34;;;;;;;2.00;1.90;;;;;;;18.79;100.00;98379.57;109661;1250;64014;-69
2023/08/28 01:33:00;;;;;;;2.10;2.00;;;;;;;18.76;100.00;98384.55;109642;1251;59825;-69
2023/08/28 01:35:31;;;;;;;2.50;2.00;;;;;;;18.74;100.00;98386.19;109587;1251;62723;-69
2023/08/28 01:38:09;;;;;;;2.50;2.30;;;;;;;18.72;100.00;98385.45;109581;1250;58187;-69
2023/08/28 01:40:53;;;;;;;2.10;1.90;;;;;;;18.73;100.00;98391.85;109657;1251;59004;-68
2023/08/28 01:43:23;;;;;;;2.60;2.40;;;;;;;18.74;100.00;98385.48;109609;1251;64076;-68
2023/08/28 01:45:51;;;;;;;2.90;1.90;;;;;;;18.73;100.00;98385.89;109593;1251;58936;-68
2023/08/28 01:48:17;;;;;;;2.80;2.50;;;;;;;18.71;100.00;98393.35;109589;1250;62844;-69
2023/08/28 01:50:44;;;;;;;2.80;2.40;;;;;;;18.70;100.00;98395.08;109583;1251;58235;-69
2023/08/28 01:53:11;;;;;;;3.40;2.90;;;;;;;18.71;100.00;98386.49;109615;1251;58260;-69
2023/08/28 01:56:02;;;;;;;3.30;3.00;;;;;;;18.71;100.00;98381.64;109630;1251;65193;-69
2023/08/28 01:58:32;;;;;;;2.70;2.50;;;;;;;18.70;100.00;98385.11;109554;1250;58917;-69
2023/08/28 02:00:58;;;;;;;2.70;2.50;;;;;;;18.69;100.00;98385.95;109590;1251;64063;-69
2023/08/28 02:03:25;;;;;;;3.50;2.70;;;;;;;18.70;100.00;98385.89;109587;1252;58199;-69
2023/08/28 02:05:52;;;;;;;2.80;2.50;;;;;;;18.72;100.00;98378.30;109645;1251;58288;-69
2023/08/28 02:08:18;;;;;;;2.80;2.50;;;;;;;18.72;100.00;98385.51;109626;1251;58711;-69
2023/08/28 02:10:44;;;;;;;3.60;2.30;;;;;;;18.71;100.00;98386.73;109616;1251;60213;-69
2023/08/28 02:13:11;;;;;;;2.50;2.30;;;;;;;18.70;100.00;98391.29;109595;1251;62895;-69
2023/08/28 02:15:38;;;;;;;2.80;2.40;;;;;;;18.69;100.00;98395.57;109598;1251;58488;-69
2023/08/28 02:18:06;;;;;;;2.40;2.20;;;;;;;18.69;100.00;98397.36;109446;1251;58253;-69
2023/08/28 02:20:32;;;;;;;2.80;2.20;;;;;;;18.69;100.00;98395.23;109421;1251;63994;-69
2023/08/28 02:22:59;;;;;;;2.30;1.70;;;;;;;18.67;100.00;98389.97;109593;1251;60111;-69
2023/08/28 02:25:25;;;;;;;1.70;1.60;;;;;;;18.66;100.00;98387.57;109452;1251;62881;-69
2023/08/28 02:27:52;;;;;;;1.70;1.60;;;;;;;18.65;100.00;98389.27;109599;1251;58220;-69
2023/08/28 02:30:18;;;;;;;2.70;2.00;;;;;;;18.63;100.00;98388.95;109648;1251;58212;-69
2023/08/28 02:32:45;;;;;;;2.60;1.70;;;;;;;18.61;100.00;98393.87;109561;1251;65711;-69
2023/08/28 02:35:11;;;;;;;2.20;1.90;;;;;;;18.59;100.00;98397.67;109575;1250;58172;-69
2023/08/28 02:37:38;;;;;;;1.90;1.80;;;;;;;18.59;100.00;98402.79;109549;1251;58237;-69
2023/08/28 02:40:06;;;;;;;2.10;2.00;;;;;;;18.58;100.00;98410.23;109545;1251;58522;-69
2023/08/28 02:42:32;;;;;;;2.20;1.80;;;;;;;18.58;100.00;98412.40;109600;1251;58106;-69
2023/08/28 02:45:00;;;;;;;2.50;2.30;;;;;;;18.57;100.00;98408.20;109586;1251;58857;-69
2023/08/28 02:47:26;;;;;;;2.10;1.90;;;;;;;18.57;100.00;98407.82;109595;1250;58426;-69
2023/08/28 02:49:53;;;;;;;2.50;2.30;;;;;;;18.56;100.00;98411.89;109616;1251;62612;-69
2023/08/28 02:52:19;;;;;;;2.50;2.30;;;;;;;18.55;100.00;98407.48;109597;1251;58237;-69
2023/08/28 02:54:46;;;;;;;2.40;2.20;;;;;;;18.54;100.00;98405.52;109566;1251;58055;-69
2023/08/28 02:57:12;;;;;;;2.60;2.40;;;;;;;18.53;100.00;98404.09;109456;1251;58806;-69
2023/08/28 02:59:39;;;;;;;2.80;2.50;;;;;;;18.53;100.00;98399.06;109640;1251;58917;-68
2023/08/28 03:02:05;;;;;;;3.10;2.70;;;;;;;18.53;100.00;98398.23;109457;1251;65116;-69
2023/08/28 03:04:34;;;;;;;2.60;2.40;;;;;;;18.54;100.00;98401.64;109566;1251;58173;-69
2023/08/28 03:07:00;;;;;;;2.70;2.50;;;;;;;18.55;100.00;98406.95;109465;1251;58156;-69
2023/08/28 03:09:29;;;;;;;2.90;2.70;;;;;;;18.53;100.00;98407.04;109601;1251;65514;-69
2023/08/28 03:11:56;;;;;;;2.30;2.20;;;;;;;18.52;100.00;98404.77;109620;1251;58929;-69
2023/08/28 03:14:22;;;;;;;4.10;2.10;;;;;;;18.51;100.00;98399.71;109532;1251;64056;-69
2023/08/28 03:16:49;;;;;;;3.70;2.80;;;;;;;18.51;100.00;98398.45;109533;1251;58242;-69
2023/08/28 03:19:15;;;;;;;3.10;2.70;;;;;;;18.51;100.00;98399.28;109609;1251;58188;-69
2023/08/28 03:21:42;;;;;;;2.50;2.30;;;;;;;18.50;100.00;98397.79;109576;1251;58269;-69
2023/08/28 03:24:08;;;;;;;3.60;2.70;;;;;;;18.48;100.00;98401.09;109614;1251;58176;-69
2023/08/28 03:26:35;;;;;;;2.50;2.20;;;;;;;18.47;100.00;98398.67;109589;1251;58257;-69
2023/08/28 03:29:01;;;;;;;3.10;2.80;;;;;;;18.47;100.00;98396.46;109566;1251;58200;-69
2023/08/28 03:31:30;;;;;;;2.60;2.40;;;;;;;18.48;100.00;98394.21;109610;1251;58339;-69
2023/08/28 03:33:56;;;;;;;2.50;2.30;;;;;;;18.48;100.00;98392.98;109625;1251;65275;-69
2023/08/28 03:36:23;;;;;;;3.20;2.80;;;;;;;18.48;100.00;98393.70;109691;1251;60150;-69
2023/08/28 03:38:49;;;;;;;3.50;2.70;;;;;;;18.48;100.00;98388.88;109550;1251;62911;-69
2023/08/28 03:41:16;;;;;;;2.60;2.00;;;;;;;18.48;100.00;98389.55;109525;1251;58145;-69
2023/08/28 03:43:42;;;;;;;2.60;2.30;;;;;;;18.48;100.00;98401.61;109619;1251;58052;-69
2023/08/28 03:46:09;;;;;;;2.50;2.30;;;;;;;18.47;100.00;98406.77;109560;1251;64927;-69
2023/08/28 03:48:36;;;;;;;3.20;2.70;;;;;;;18.47;100.00;98415.56;109571;1251;61276;-69
2023/08/28 03:51:02;;;;;;;2.50;2.30;;;;;;;18.46;100.00;98414.96;109620;1251;64076;-68
2023/08/28 03:53:28;;;;;;;2.70;2.50;;;;;;;18.45;100.00;98420.78;109559;1251;58670;-69
2023/08/28 03:55:55;;;;;;;5.10;2.70;;;;;;;18.44;100.00;98430.97;109587;1251;58396;-69
2023/08/28 03:58:22;;;;;;;3.10;2.50;;;;;;;18.44;100.00;98432.83;109643;1251;65201;-68
2023/08/28 04:00:53;;;;;;;3.50;2.40;;;;;;;18.42;100.00;98430.66;109592;1251;58916;-68
2023/08/28 04:03:20;;;;;;;2.70;2.50;;;;;;;18.41;100.00;98431.52;109595;1251;64021;-68
2023/08/28 04:05:48;;;;;;;2.20;2.10;;;;;;;18.42;100.00;98439.13;109447;1251;58207;-68
2023/08/28 04:08:15;;;;;;;3.00;2.40;;;;;;;18.41;100.00;98443.16;109588;1250;58171;-69
2023/08/28 04:10:42;;;;;;;2.90;2.40;;;;;;;18.38;100.00;98452.98;109600;1251;65392;-69
2023/08/28 04:13:09;;;;;;;4.10;2.50;;;;;;;18.37;100.00;98449.17;109569;1251;59934;-69
2023/08/28 04:15:37;;;;;;;2.90;2.70;;;;;;;18.37;100.00;98444.71;109643;1251;62895;-69
2023/08/28 04:18:04;;;;;;;4.60;3.00;;;;;;;18.36;100.00;98444.96;109576;1251;58154;-69
2023/08/28 04:20:32;;;;;;;2.60;2.40;;;;;;;18.35;100.00;98445.23;109601;1251;58061;-69
2023/08/28 04:22:59;;;;;;;3.60;3.20;;;;;;;18.36;100.00;98443.20;109604;1251;73078;-69
2023/08/28 04:25:29;;;;;;;3.10;2.70;;;;;;;18.38;100.00;98432.76;109628;1251;60666;-69
2023/08/28 04:27:55;;;;;;;3.80;3.10;;;;;;;18.39;100.00;98424.89;109610;1251;64079;-68
2023/08/28 04:30:22;;;;;;;11.30;4.60;;;;;;;18.39;100.00;98425.17;109568;1251;58194;-68
2023/08/28 04:32:48;;;;;;;3.50;3.20;;;;;;;18.39;100.00;98429.14;109412;1251;58309;-67
2023/08/28 04:35:15;;;;;;;3.40;3.00;;;;;;;18.39;100.00;98429.17;109654;1251;58170;-68
2023/08/28 04:37:41;;;;;;;5.20;3.50;;;;;;;18.36;100.00;98424.99;109556;1251;58321;-68
2023/08/28 04:40:08;;;;;;;3.60;3.30;;;;;;;18.34;100.00;98416.95;109561;1251;58299;-68
2023/08/28 04:42:35;;;;;;;3.10;2.70;;;;;;;18.34;100.00;98404.17;109432;1251;58206;-68
2023/08/28 04:45:01;;;;;;;3.60;3.40;;;;;;;18.35;100.00;98404.25;109616;1251;58345;-68
2023/08/28 04:47:29;;;;;;;4.50;3.70;;;;;;;18.38;100.00;98409.02;109630;1251;64053;-69
2023/08/28 04:49:55;;;;;;;7.00;4.30;;;;;;;18.41;100.00;98407.86;109548;1251;59161;-70
2023/08/28 04:52:22;;;;;;;5.10;4.50;;;;;;;18.44;100.00;98405.14;109555;1251;58198;-70
2023/08/28 04:54:48;;;;;;;5.80;4.20;;;;;;;18.50;100.00;98410.02;109555;1251;58131;-71
2023/08/28 04:57:15;;;;;;;5.50;4.60;;;;;;;18.53;100.00;98420.36;109629;1251;58461;-70
2023/08/28 04:59:41;;;;;;;4.80;3.70;;;;;;;18.57;100.00;98418.27;109654;1251;58150;-70
2023/08/28 05:02:08;;;;;;;4.40;4.00;;;;;;;18.62;100.00;98402.46;109658;1251;60184;-70
2023/08/28 05:04:35;;;;;;;4.50;4.10;;;;;;;18.64;100.00;98412.09;109597;1251;62928;-71
2023/08/28 05:07:02;;;;;;;6.50;4.60;;;;;;;18.66;100.00;98431.46;109402;1254;58250;-72
2023/08/28 05:09:28;;;;;;;5.00;4.50;;;;;;;18.70;100.00;98433.35;109589;1250;58253;-70
2023/08/28 05:11:55;;;;;;;5.70;5.20;;;;;;;18.76;100.00;98423.16;109604;1251;65282;-70
2023/08/28 05:14:21;;;;;;;5.70;4.50;;;;;;;18.75;100.00;98419.92;109526;1253;61326;-71
2023/08/28 05:16:48;;;;;;;5.10;4.60;;;;;;;18.73;100.00;98421.36;109488;1251;58184;-71
2023/08/28 05:19:15;;;;;;;5.30;4.90;;;;;;;18.71;100.00;98408.39;109525;1252;58208;-71
2023/08/28 05:21:41;;;;;;;6.20;5.60;;;;;;;18.67;100.00;98402.39;109508;1251;58210;-70
2023/08/28 05:24:08;;;;;;;6.60;4.50;;;;;;;18.65;100.00;98413.35;109537;1252;65253;-71
2023/08/28 05:26:34;;;;;;;5.50;5.10;;;;;;;18.70;100.00;98416.90;109533;1252;60167;-70
2023/08/28 05:29:01;;;;;;;5.40;4.90;;;;;;;18.70;100.00;98416.52;109572;1252;58957;-70
2023/08/28 05:31:27;;;;;;;5.60;5.10;;;;;;;18.70;100.00;98412.10;109556;1252;58164;-69
2023/08/28 05:33:54;;;;;;;6.40;5.40;;;;;;;18.71;100.00;98405.92;109551;1252;58142;-69
2023/08/28 05:36:20;;;;;;;5.80;5.40;;;;;;;18.72;100.00;98409.20;109402;1253;58237;-69
2023/08/28 05:38:47;;;;;;;7.00;6.00;;;;;;;18.74;100.00;98409.97;109602;1251;58901;-69
2023/08/28 05:41:13;;;;;;;6.30;5.50;;;;;;;18.74;100.00;98395.00;109533;1252;58198;-69
2023/08/28 05:43:40;;;;;;;6.60;6.00;;;;;;;18.76;100.00;98388.30;109504;1253;58101;-69
2023/08/28 05:46:06;;;;;;;6.00;5.50;;;;;;;18.79;100.00;98385.27;109523;1252;58220;-70
2023/08/28 05:48:33;;;;;;;7.00;6.40;;;;;;;18.83;100.00;98373.80;109520;1252;58882;-69
2023/08/28 05:50:59;;;;;;;9.10;7.20;;;;;;;18.86;100.00;98375.85;109541;1252;58629;-69
2023/08/28 05:53:26;;;;;;;8.60;6.30;;;;;;;18.83;100.00;98391.27;109525;1252;58263;-69
2023/08/28 05:55:52;;;;;;;7.30;6.60;;;;;;;18.87;100.00;98393.70;109587;1251;58386;-70
2023/08/28 05:58:18;;;;;;;7.40;6.30;;;;;;;18.91;100.00;98379.30;109569;1251;58043;-70
2023/08/28 06:00:45;;;;;;;6.80;6.00;;;;;;;18.94;100.00;98371.63;109580;1252;58563;-70
2023/08/28 06:03:13;;;;;;;7.30;6.40;;;;;;;18.98;100.00;98366.20;109550;1251;60140;-69
2023/08/28 06:05:39;;;;;;;6.40;5.80;;;;;;;19.08;100.00;98372.82;109549;1251;63904;-69
2023/08/28 06:08:06;;;;;;;7.20;5.80;;;;;;;19.21;100.00;98382.20;109597;1251;58231;-69
2023/08/28 06:10:33;;;;;;;6.70;5.80;;;;;;;19.33;100.00;98383.79;109601;1252;58183;-69
2023/08/28 06:13:00;;;;;;;6.60;6.00;;;;;;;19.42;100.00;98387.81;109517;1253;65202;-70
2023/08/28 06:15:26;;;;;;;7.20;6.50;;;;;;;19.48;100.00;98386.52;109578;1251;58606;-69
2023/08/28 06:17:54;;;;;;;6.80;5.90;;;;;;;19.55;100.00;98393.14;109551;1251;58298;-69
2023/08/28 06:20:22;;;;;;;7.10;6.50;;;;;;;19.58;100.00;98396.07;109543;1252;58153;-70
2023/08/28 06:22:48;;;;;;;6.90;5.90;;;;;;;19.64;100.00;98398.98;109567;1253;58325;-70
2023/08/28 06:25:15;;;;;;;7.10;5.90;;;;;;;19.69;100.00;98396.19;109564;1251;65209;-69
2023/08/28 06:27:41;;;;;;;6.60;6.10;;;;;;;19.72;100.00;98392.46;109564;1252;59037;-70
2023/08/28 06:30:09;;;;;;;7.50;6.20;;;;;;;19.74;100.00;98395.63;109542;1252;62904;-70
2023/08/28 06:32:36;;;;;;;8.30;7.50;;;;;;;19.77;100.00;98388.80;109199;1251;58303;-70
2023/08/28 06:35:04;;;;;;;7.70;7.00;;;;;;;19.85;100.00;98388.16;109517;1252;58183;-69
2023/08/28 06:37:30;;;;;;;7.80;7.10;;;;;;;19.94;100.00;98383.49;109564;1251;65681;-70
2023/08/28 06:39:57;;;;;;;7.80;7.10;;;;;;;20.02;100.00;98385.27;109558;1252;58203;-70
2023/08/28 06:42:23;;;;;;;8.50;7.40;;;;;;;20.02;100.00;98391.90;109430;1253;64008;-70
2023/08/28 06:44:50;;;;;;;8.10;7.50;;;;;;;20.02;100.00;98391.27;109470;1251;58106;-70
2023/08/28 06:47:17;;;;;;;8.40;7.60;;;;;;;20.04;100.00;98390.95;109568;1252;58065;-70
2023/08/28 06:49:43;;;;;;;8.30;7.50;;;;;;;20.17;100.00;98392.15;109588;1252;65236;-70
2023/08/28 06:52:10;;;;;;;9.00;8.20;;;;;;;20.31;100.00;98392.75;109565;1252;60174;-69
2023/08/28 06:54:36;;;;;;;7.80;7.20;;;;;;;20.37;100.00;98385.16;109546;1252;62811;-69
2023/08/28 06:57:03;;;;;;;8.80;8.00;;;;;;;20.42;100.00;98388.84;109573;1252;58168;-69
2023/08/28 06:59:30;;;;;;;8.00;7.30;;;;;;;20.35;100.00;98389.84;109588;1252;58212;-69
2023/08/28 07:01:56;;;;;;;8.70;7.90;;;;;;;20.32;100.00;98391.11;109532;1252;65226;-69
2023/08/28 07:04:23;;;;;;;8.40;7.70;;;;;;;20.28;100.00;98394.18;109534;1255;60208;-69
2023/08/28 07:06:51;;;;;;;8.30;7.50;;;;;;;20.20;100.00;98396.70;109521;1253;64086;-69
2023/08/28 07:09:17;;;;;;;8.60;7.50;;;;;;;20.11;100.00;98397.70;109525;1253;58137;-69
2023/08/28 07:11:44;;;;;;;8.20;7.40;;;;;;;20.06;100.00;98394.48;109569;1251;58130;-69
2023/08/28 07:14:10;;;;;;;8.80;8.00;;;;;;;20.08;100.00;98393.89;109569;1252;64046;-69
2023/08/28 07:16:37;;;;;;;8.10;7.40;;;;;;;20.14;100.00;98394.27;109509;1251;60165;-69
2023/08/28 07:19:03;;;;;;;7.30;6.80;;;;;;;20.24;100.00;98392.79;109560;1252;62872;-69
2023/08/28 07:21:30;;;;;;;7.50;6.90;;;;;;;20.33;100.00;98387.08;109636;1252;58191;-69
2023/08/28 07:23:57;;;;;;;7.00;6.30;;;;;;;20.41;100.00;98388.60;109585;1253;58044;-70
2023/08/28 07:26:23;;;;;;;7.20;6.10;;;;;;;20.48;100.00;98389.94;109550;1253;65217;-70
2023/08/28 07:28:50;;;;;;;6.50;5.90;;;;;;;20.51;100.00;98391.61;109544;1252;60108;-70
2023/08/28 07:31:16;;;;;;;7.10;6.50;;;;;;;20.56;100.00;98389.44;109549;1252;63737;-70
2023/08/28 07:33:43;;;;;;;6.50;6.00;;;;;;;20.65;100.00;98391.42;109564;1252;58162;-69
2023/08/28 07:36:10;;;;;;;6.30;5.60;;;;;;;20.69;100.00;98390.20;109300;1253;58272;-69
2023/08/28 07:38:36;;;;;;;5.50;5.00;;;;;;;20.71;100.00;98391.16;109379;1252;65248;-69
2023/08/28 07:41:03;;;;;;;5.90;5.40;;;;;;;20.70;100.00;98386.38;109570;1251;60145;-69
2023/08/28 07:43:29;;;;;;;6.60;5.70;;;;;;;20.77;100.00;98387.27;109563;1253;64037;-69
2023/08/28 07:45:56;;;;;;;6.20;5.40;;;;;;;20.91;100.00;98393.02;109570;1252;58245;-69
2023/08/28 07:48:23;;;;;;;5.40;4.90;;;;;;;21.04;100.00;98388.23;109561;1253;58245;-69
2023/08/28 07:50:50;;;;;;;5.30;4.80;;;;;;;21.10;100.00;98382.05;109593;1252;65032;-69
2023/08/28 07:53:16;;;;;;;6.20;4.40;;;;;;;21.16;100.00;98374.97;109623;1252;59822;-69
2023/08/28 07:55:43;;;;;;;3.70;3.20;;;;;;;21.29;100.00;98376.39;109537;1252;64166;-69
2023/08/28 07:58:09;;;;;;;4.70;3.30;;;;;;;21.38;100.00;98382.38;109509;1252;58120;-69
2023/08/28 08:00:38;;;;;;;4.20;3.30;;;;;;;21.38;100.00;98382.13;109585;1251;58035;-69
2023/08/28 08:03:04;;;;;;;2.90;2.70;;;;;;;21.44;100.00;98377.61;109565;1253;65222;-70
2023/08/28 08:05:34;;;;;;;2.70;2.50;;;;;;;21.42;100.00;98381.42;109582;1252;59050;-69
2023/08/28 08:08:01;;;;;;;3.20;2.90;;;;;;;21.40;100.00;98379.79;109498;1252;62847;-69
2023/08/28 08:10:27;;;;;;;4.30;3.30;;;;;;;21.43;100.00;98376.88;109553;1251;58163;-69
2023/08/28 08:12:54;;;;;;;3.60;3.10;;;;;;;21.56;100.00;98371.27;109533;1251;58229;-69
2023/08/28 08:15:21;;;;;;;3.80;3.30;;;;;;;21.69;100.00;98371.84;109551;1251;65270;-69
2023/08/28 08:17:48;;;;;;;3.80;3.40;;;;;;;21.79;100.00;98365.96;109534;1253;59012;-69
2023/08/28 08:20:15;;;;;;;4.10;3.80;;;;;;;21.84;100.00;98365.20;109575;1252;62728;-69
2023/08/28 08:22:46;;;;;;;5.20;4.70;;;;;;;21.86;100.00;98373.40;109513;1252;58287;-69
2023/08/28 08:25:13;;;;;;;5.30;4.60;;;;;;;21.75;100.00;98376.06;109565;1253;58251;-69
2023/08/28 08:27:39;;;;;;;4.70;4.30;;;;;;;21.65;100.00;98379.05;109578;1251;65288;-69
2023/08/28 08:30:08;;;;;;;5.20;4.70;;;;;;;21.57;100.00;98381.45;109631;1252;58900;-69
2023/08/28 08:32:35;;;;;;;6.90;4.90;;;;;;;21.56;100.00;98382.52;108545;1252;885409;-69
2023/08/28 08:35:05;;;;;;;5.20;4.70;;;;;;;21.60;100.00;98385.13;109523;1253;58241;-69
2023/08/28 08:37:35;;;;;;;4.30;3.90;;;;;;;21.56;100.00;98388.27;109557;1253;58067;-69
2023/08/28 08:40:03;;;;;;;3.50;3.10;;;;;;;21.51;100.00;98386.71;109551;1253;66067;-69
2023/08/28 08:42:29;;;;;;;4.20;3.40;;;;;;;21.46;100.00;98386.40;109392;1252;68189;-69
2023/08/28 08:44:56;;;;;;;3.80;3.20;;;;;;;21.42;100.00;98384.00;109543;1253;63989;-69
2023/08/28 08:47:23;;;;;;;3.70;3.40;;;;;;;21.40;100.00;98381.35;109550;1252;58148;-69
2023/08/28 08:49:56;;;;;;;4.70;3.70;;;;;;;21.50;100.00;98377.77;109573;1252;58143;-69
2023/08/28 08:52:23;;;;;;;4.90;3.90;;;;;;;21.54;100.00;98378.08;109554;1251;65303;-69
2023/08/28 08:54:56;;;;;;;5.00;4.20;;;;;;;21.50;100.00;98378.93;109557;1253;60358;-69
2023/08/28 08:57:30;;;;;;;4.40;3.70;;;;;;;21.45;100.00;98374.99;109604;1253;64073;-69
2023/08/28 08:59:57;;;;;;;4.00;3.60;;;;;;;21.51;100.00;98374.32;109558;1252;58202;-69
2023/08/28 09:02:25;;;;;;;5.00;4.20;;;;;;;21.56;100.00;98376.77;109563;1252;58238;-69
2023/08/28 09:04:52;;;;;;;4.60;3.60;;;;;;;21.62;100.00;98381.40;109578;1251;65236;-70
2023/08/28 09:07:19;;;;;;;6.10;5.50;;;;;;;21.66;100.00;98387.58;109548;1253;60194;-70
2023/08/28 09:09:46;;;;;;;5.60;5.00;;;;;;;21.63;100.00;98388.16;109520;1253;62911;-69
2023/08/28 09:12:15;;;;;;;4.70;4.30;;;;;;;21.60;100.00;98389.67;109313;1252;58183;-70
2023/08/28 09:14:42;;;;;;;4.50;4.00;;;;;;;21.56;100.00;98384.86;109634;1251;58204;-70
2023/08/28 09:17:08;;;;;;;5.40;3.70;;;;;;;21.61;100.00;98381.01;109569;1253;64949;-69
2023/08/28 09:19:35;;;;;;;4.10;3.70;;;;;;;21.69;100.00;98379.30;109555;1253;60139;-70
2023/08/28 09:22:03;;;;;;;6.00;3.40;;;;;;;21.76;100.00;98376.81;109619;1253;62831;-69
2023/08/28 09:24:30;;;;;;;4.00;3.10;;;;;;;21.77;100.00;98373.78;109569;1253;58190;-69
2023/08/28 09:27:00;;;;;;;3.80;3.20;;;;;;;21.68;100.00;98370.30;109592;1252;58315;-70
2023/08/28 09:29:27;;;;;;;3.50;3.10;;;;;;;21.58;100.00;98372.11;109595;1252;64063;-69
2023/08/28 09:32:04;;;;;;;3.50;3.10;;;;;;;21.53;100.00;98375.50;109550;1252;69842;-69
2023/08/28 09:34:40;;;;;;;4.80;4.40;;;;;;;21.44;100.00;98376.40;109572;1252;63932;-69
2023/08/28 09:37:09;;;;;;;5.40;4.00;;;;;;;21.37;100.00;98369.73;109600;1251;58157;-70
2023/08/28 09:39:54;;;;;;;5.10;3.80;;;;;;;21.36;100.00;98366.79;109526;1252;58359;-70
2023/08/28 09:42:24;;;;;;;4.90;4.10;;;;;;;21.42;100.00;98360.67;109545;1254;64080;-69
2023/08/28 09:44:51;;;;;;;4.80;4.50;;;;;;;21.51;100.00;98357.05;109439;1252;60407;-69
2023/08/28 09:47:21;;;;;;;4.80;4.40;;;;;;;21.54;100.00;98352.95;109619;1252;62917;-70
2023/08/28 09:49:51;;;;;;;4.50;4.10;;;;;;;21.51;100.00;98352.52;109548;1252;58147;-70
2023/08/28 09:52:25;;;;;;;4.30;4.10;;;;;;;21.47;100.00;98352.32;109525;1253;58242;-70
2023/08/28 09:55:09;;;;;;;7.50;4.70;;;;;;;21.37;100.00;98356.34;109545;1253;64159;-68
2023/08/28 09:57:41;;;;;;;5.40;4.70;;;;;;;21.32;100.00;98355.10;109604;1252;60298;-69
2023/08/28 10:00:08;;;;;;;5.30;4.80;;;;;;;21.27;100.00;98352.58;109547;1253;64058;-68
2023/08/28 10:02:35;;;;;;;5.60;5.00;;;;;;;21.29;100.00;98349.46;109553;1252;58242;-68
2023/08/28 10:05:08;;;;;;;5.50;5.10;;;;;;;21.39;100.00;98351.08;109602;1252;58262;-68
2023/08/28 10:07:39;;;;;;;4.60;4.20;;;;;;;21.50;100.00;98345.28;109578;1253;65242;-69
2023/08/28 10:10:06;;;;;;;5.10;4.70;;;;;;;21.60;100.00;98341.35;109556;1252;59505;-69
2023/08/28 10:12:33;;;;;;;4.80;4.50;;;;;;;21.70;100.00;98349.31;109478;1252;62502;-69
2023/08/28 10:15:01;;;;;;;5.10;4.30;;;;;;;21.76;100.00;98349.52;109511;1253;58212;-69
2023/08/28 10:17:31;;;;;;;6.20;4.40;;;;;;;21.78;100.00;98343.96;109553;1253;58548;-69
2023/08/28 10:20:00;;;;;;;6.30;4.40;;;;;;;21.83;100.00;98340.43;109291;1253;64026;-69
2023/08/28 10:22:28;;;;;;;4.70;4.30;;;;;;;21.86;100.00;98327.10;109261;1253;60383;-69
2023/08/28 10:24:57;;;;;;;7.20;4.30;;;;;;;21.90;100.00;98322.94;109210;1253;63809;-69
2023/08/28 10:27:24;;;;;;;5.00;4.50;;;;;;;21.91;100.00;98316.36;109185;1252;58201;-69
2023/08/28 10:29:52;;;;;;;7.60;4.80;;;;;;;21.92;100.00;98304.59;109539;1252;58124;-69
2023/08/28 10:32:20;;;;;;;4.60;4.10;;;;;;;21.89;100.00;98302.58;109527;1252;65224;-69
2023/08/28 10:34:48;;;;;;;5.30;4.30;;;;;;;21.83;100.00;98296.31;109556;1252;59034;-69
2023/08/28 10:37:15;;;;;;;4.50;4.00;;;;;;;21.86;100.00;98293.10;109562;1253;64037;-69
2023/08/28 10:39:43;;;;;;;5.00;4.40;;;;;;;21.83;100.00;98298.29;109540;1252;58195;-69
2023/08/28 10:42:12;;;;;;;5.40;4.50;;;;;;;21.86;100.00;98304.63;109237;1251;58245;-68
2023/08/28 10:44:39;;;;;;;4.30;3.90;;;;;;;21.90;100.00;98304.25;109614;1255;64033;-69
2023/08/28 10:47:06;;;;;;;4.70;4.20;;;;;;;21.94;100.00;98302.41;109640;1252;59743;-69
2023/08/28 10:49:34;;;;;;;4.40;4.00;;;;;;;21.94;100.00;98303.16;109256;1254;64057;-69
2023/08/28 10:52:04;;;;;;;4.60;4.20;;;;;;;21.93;100.00;98303.95;109563;1252;58165;-69
2023/08/28 10:54:37;;;;;;;3.90;3.50;;;;;;;21.92;100.00;98309.14;109593;1254;58217;-69
2023/08/28 10:57:10;;;;;;;3.90;3.60;;;;;;;21.88;100.00;98310.40;109602;1251;65413;-69
2023/08/28 10:59:44;;;;;;;4.10;3.30;;;;;;;21.75;100.00;98307.46;109594;1253;60238;-70
2023/08/28 11:02:12;;;;;;;4.50;3.30;;;;;;;21.60;100.00;98306.31;109553;1254;64054;-69
2023/08/28 11:04:40;;;;;;;3.70;3.40;;;;;;;21.48;100.00;98300.67;109316;1253;58186;-70
2023/08/28 11:07:22;;;;;;;8.40;4.00;;;;;;;21.45;100.00;98302.81;109557;1254;58700;-69
2023/08/28 11:09:49;;;;;;;3.20;2.90;;;;;;;21.50;100.00;98301.89;109553;1252;64116;-69
2023/08/28 11:12:19;;;;;;;3.00;2.80;;;;;;;21.55;100.00;98300.37;109579;1254;59792;-69
2023/08/28 11:14:51;;;;;;;3.30;3.00;;;;;;;21.57;100.00;98296.27;109568;1252;64055;-69
2023/08/28 11:17:20;;;;;;;4.70;3.30;;;;;;;21.57;100.00;98296.48;109512;1252;58181;-69
2023/08/28 11:20:07;;;;;;;3.90;3.60;;;;;;;21.61;100.00;98291.83;109576;1251;58245;-69